Time;durP1;ratioP1;P1;durP2;ratioP2;P2;SDS_P1;SDS_P2;PMS_P1;PMS_P2;Temp;Humidity;BMP_temperature;BMP_pressure;BME280_temperature;BME280_humidity;BME280_pressure;Samples;Min_cycle;Max_cycle;Signal;HPM_P1;HPM_P2
2021/08/26 00:07:45;;;;;;;52.83;37.15;;;24.10;53.70;;;;;;5013475;28;20056;-58
2021/08/26 00:10:13;;;;;;;53.38;36.15;;;24.10;53.70;;;;;;5020967;28;20045;-58
2021/08/26 00:12:39;;;;;;;52.35;36.42;;;24.10;53.70;;;;;;5014042;28;20048;-59
2021/08/26 00:15:08;;;;;;;53.20;36.72;;;24.10;53.70;;;;;;5027260;28;20087;-60
2021/08/26 00:17:35;;;;;;;51.20;35.78;;;24.10;53.70;;;;;;5027471;28;20030;-60
2021/08/26 00:20:05;;;;;;;50.83;35.03;;;24.10;53.70;;;;;;5027252;28;20073;-57
2021/08/26 00:22:31;;;;;;;53.92;36.78;;;24.00;53.70;;;;;;5027595;28;20536;-60
2021/08/26 00:24:56;;;;;;;51.95;36.85;;;24.00;53.60;;;;;;5027251;28;20028;-58
2021/08/26 00:27:23;;;;;;;51.05;36.63;;;24.00;53.60;;;;;;5015535;28;20457;-59
2021/08/26 00:29:50;;;;;;;50.13;34.33;;;24.00;53.60;;;;;;5025977;28;20036;-58
2021/08/26 00:32:15;;;;;;;47.72;34.05;;;24.00;53.60;;;;;;5027808;28;20066;-58
2021/08/26 00:34:41;;;;;;;50.42;33.95;;;24.00;53.70;;;;;;5026066;28;20552;-58
2021/08/26 00:37:06;;;;;;;51.35;35.00;;;24.00;53.70;;;;;;5020438;28;20037;-56
2021/08/26 00:39:32;;;;;;;47.65;33.72;;;24.00;53.70;;;;;;5027886;28;20060;-60
2021/08/26 00:41:58;;;;;;;46.08;33.53;;;23.90;53.60;;;;;;5019206;28;20041;-57
2021/08/26 00:44:23;;;;;;;49.13;33.20;;;24.00;53.70;;;;;;5009577;28;20034;-58
2021/08/26 00:46:49;;;;;;;46.88;33.13;;;23.90;53.60;;;;;;5026186;28;20059;-58
2021/08/26 00:49:16;;;;;;;45.28;30.83;;;23.90;53.60;;;;;;5038668;28;20029;-59
2021/08/26 00:51:44;;;;;;;46.03;32.03;;;23.90;53.60;;;;;;5047891;28;20028;-58
2021/08/26 00:54:10;;;;;;;44.88;31.42;;;23.90;53.60;;;;;;5018275;28;20033;-59
2021/08/26 00:56:36;;;;;;;47.33;31.58;;;23.90;53.60;;;;;;5025293;28;20044;-59
2021/08/26 00:59:04;;;;;;;45.55;32.50;;;23.90;53.60;;;;;;5039867;28;20116;-56
2021/08/26 01:01:55;;;;;;;42.08;29.45;;;23.90;53.60;;;;;;5025153;28;20045;-59
2021/08/26 01:04:23;;;;;;;43.65;29.88;;;23.90;53.60;;;;;;5006251;28;20042;-59
2021/08/26 01:07:19;;;;;;;43.58;31.05;;;23.90;53.70;;;;;;5010025;28;20025;-60
2021/08/26 01:09:50;;;;;;;43.80;30.73;;;23.90;53.70;;;;;;5009557;28;20425;-57
2021/08/26 01:12:22;;;;;;;40.85;29.00;;;23.90;53.70;;;;;;5008238;28;20097;-59
2021/08/26 01:14:49;;;;;;;43.88;30.02;;;23.90;53.70;;;;;;5007807;28;20077;-58
2021/08/26 01:17:22;;;;;;;40.05;28.60;;;23.80;53.70;;;;;;5011664;28;20140;-59
2021/08/26 01:19:48;;;;;;;38.63;28.63;;;23.90;53.70;;;;;;5016182;28;20369;-59
2021/08/26 01:22:19;;;;;;;38.97;28.17;;;23.80;53.60;;;;;;5017062;28;20100;-58
2021/08/26 01:24:49;;;;;;;39.28;28.30;;;23.80;53.60;;;;;;5015843;28;20589;-59
2021/08/26 01:27:16;;;;;;;39.50;28.02;;;23.80;53.70;;;;;;5018001;28;20021;-59
2021/08/26 01:29:42;;;;;;;39.47;28.38;;;23.80;53.70;;;;;;5033287;28;20456;-59
2021/08/26 01:32:08;;;;;;;38.10;26.88;;;23.80;53.60;;;;;;5047256;28;20052;-59
2021/08/26 01:34:33;;;;;;;37.47;28.20;;;23.80;53.70;;;;;;5031907;28;20033;-58
2021/08/26 01:37:00;;;;;;;40.15;28.27;;;23.80;53.70;;;;;;5028942;28;20051;-58
2021/08/26 01:39:26;;;;;;;39.22;29.27;;;23.80;53.70;;;;;;5030441;28;20125;-56
2021/08/26 01:41:53;;;;;;;38.25;27.08;;;23.80;53.70;;;;;;5031870;28;20144;-58
2021/08/26 01:44:29;;;;;;;36.78;26.48;;;23.80;53.70;;;;;;5030919;28;20044;-58
2021/08/26 01:46:57;;;;;;;36.53;26.55;;;23.80;53.70;;;;;;5010616;28;20083;-57
2021/08/26 01:49:24;;;;;;;35.80;25.73;;;23.80;53.70;;;;;;5020230;28;20022;-59
2021/08/26 01:51:49;;;;;;;34.10;24.95;;;23.80;53.70;;;;;;5024212;28;20029;-58
2021/08/26 01:54:15;;;;;;;36.30;25.98;;;23.70;53.70;;;;;;5039108;28;20600;-59
2021/08/26 01:56:40;;;;;;;33.80;25.58;;;23.70;53.70;;;;;;5014819;28;20061;-59
2021/08/26 01:59:06;;;;;;;38.10;27.08;;;23.70;53.70;;;;;;5019996;28;20123;-59
2021/08/26 02:01:32;;;;;;;33.75;25.17;;;23.80;53.70;;;;;;5031200;28;20044;-59
2021/08/26 02:03:58;;;;;;;35.53;25.48;;;23.70;53.70;;;;;;5049237;28;20041;-60
2021/08/26 02:06:23;;;;;;;33.60;25.02;;;23.70;53.70;;;;;;5030504;28;20057;-57
2021/08/26 02:08:49;;;;;;;35.13;24.33;;;23.70;53.60;;;;;;5028134;28;20104;-58
2021/08/26 02:11:15;;;;;;;34.42;23.58;;;23.70;53.70;;;;;;5019697;28;20167;-58
2021/08/26 02:13:40;;;;;;;31.90;24.33;;;23.70;53.70;;;;;;5027890;28;20045;-59
2021/08/26 02:16:06;;;;;;;34.78;25.40;;;23.70;53.60;;;;;;5010803;28;20105;-58
2021/08/26 02:18:32;;;;;;;32.63;24.38;;;23.70;53.60;;;;;;5018142;28;20026;-58
2021/08/26 02:20:58;;;;;;;35.03;25.30;;;23.70;53.70;;;;;;5029876;28;20191;-58
2021/08/26 02:23:24;;;;;;;34.47;24.30;;;23.70;53.70;;;;;;5012386;28;20036;-59
2021/08/26 02:25:49;;;;;;;31.80;23.05;;;23.70;53.70;;;;;;5009878;28;20040;-59
2021/08/26 02:28:15;;;;;;;33.65;23.95;;;23.70;53.70;;;;;;5020693;28;20051;-59
2021/08/26 02:30:41;;;;;;;31.45;23.92;;;23.70;53.70;;;;;;5018869;28;20041;-59
2021/08/26 02:33:06;;;;;;;31.67;23.40;;;23.70;53.70;;;;;;5026897;28;20634;-59
2021/08/26 02:35:32;;;;;;;30.48;22.27;;;23.60;53.60;;;;;;5024014;28;20025;-58
2021/08/26 02:37:58;;;;;;;31.10;22.83;;;23.70;53.70;;;;;;5029437;28;20140;-58
2021/08/26 02:40:23;;;;;;;29.00;21.10;;;23.60;53.70;;;;;;5022170;28;20485;-59
2021/08/26 02:42:49;;;;;;;31.08;22.20;;;23.70;53.70;;;;;;5028547;28;20037;-59
2021/08/26 02:45:14;;;;;;;32.15;22.35;;;23.70;53.70;;;;;;5018958;28;20033;-58
2021/08/26 02:47:40;;;;;;;31.95;22.42;;;23.60;53.60;;;;;;5028722;28;20025;-59
2021/08/26 02:50:06;;;;;;;29.33;21.13;;;23.60;53.70;;;;;;5015518;28;20066;-58
2021/08/26 02:52:32;;;;;;;29.92;21.52;;;23.60;53.70;;;;;;5029634;28;20425;-59
2021/08/26 02:54:57;;;;;;;28.13;20.70;;;23.60;53.70;;;;;;5025172;28;20088;-59
2021/08/26 02:57:23;;;;;;;29.23;21.38;;;23.60;53.70;;;;;;5025796;28;20035;-58
2021/08/26 02:59:48;;;;;;;29.63;22.20;;;23.60;53.70;;;;;;5017173;28;20447;-57
2021/08/26 03:02:14;;;;;;;29.45;21.73;;;23.60;53.70;;;;;;5020777;28;20151;-58
2021/08/26 03:04:40;;;;;;;31.33;21.88;;;23.60;53.70;;;;;;5027618;28;20037;-58
2021/08/26 03:07:05;;;;;;;27.88;20.40;;;23.60;53.70;;;;;;5031263;28;20105;-59
2021/08/26 03:09:31;;;;;;;27.83;20.80;;;23.60;53.70;;;;;;5015421;28;20034;-59
2021/08/26 03:11:56;;;;;;;27.42;20.85;;;23.60;53.70;;;;;;5010205;28;20034;-58
2021/08/26 03:14:22;;;;;;;27.13;20.30;;;23.60;53.70;;;;;;5019161;28;20038;-59
2021/08/26 03:16:47;;;;;;;27.23;20.35;;;23.60;53.70;;;;;;5009275;28;20037;-59
2021/08/26 03:19:13;;;;;;;25.75;19.08;;;23.60;53.70;;;;;;5010841;28;20692;-58
2021/08/26 03:21:38;;;;;;;27.95;20.20;;;23.60;53.70;;;;;;5025229;28;20147;-58
2021/08/26 03:24:05;;;;;;;26.13;19.65;;;23.60;53.70;;;;;;5015507;28;20073;-59
2021/08/26 03:26:31;;;;;;;25.95;19.25;;;23.60;53.70;;;;;;5008275;28;20088;-58
2021/08/26 03:28:57;;;;;;;27.02;19.75;;;23.60;53.70;;;;;;5022836;28;20152;-58
2021/08/26 03:31:22;;;;;;;25.50;19.17;;;23.60;53.70;;;;;;5024648;28;20607;-58
2021/08/26 03:33:48;;;;;;;26.23;19.42;;;23.60;53.70;;;;;;5026079;28;20128;-58
2021/08/26 03:36:14;;;;;;;25.80;18.67;;;23.50;53.70;;;;;;5027186;28;20110;-58
2021/08/26 03:38:40;;;;;;;25.25;19.45;;;23.50;53.70;;;;;;5032998;28;20036;-59
2021/08/26 03:41:06;;;;;;;26.58;19.60;;;23.60;53.70;;;;;;5026740;28;20425;-60
2021/08/26 03:43:31;;;;;;;24.05;18.85;;;23.50;53.70;;;;;;5027623;28;20076;-59
2021/08/26 03:45:57;;;;;;;27.40;18.77;;;23.50;53.70;;;;;;5025850;28;20573;-58
2021/08/26 03:48:22;;;;;;;24.30;18.88;;;23.50;53.70;;;;;;5025781;28;20057;-58
2021/08/26 03:50:48;;;;;;;24.50;18.55;;;23.50;53.70;;;;;;5022302;28;20030;-59
2021/08/26 03:53:13;;;;;;;24.63;18.38;;;23.50;53.80;;;;;;5016305;28;20354;-58
2021/08/26 03:55:39;;;;;;;23.13;17.45;;;23.50;53.70;;;;;;5024934;28;20025;-57
2021/08/26 03:58:05;;;;;;;23.48;17.63;;;23.50;54.30;;;;;;5032619;28;20033;-58
2021/08/26 04:00:30;;;;;;;25.30;18.58;;;23.50;53.80;;;;;;5027958;28;20036;-58
2021/08/26 04:02:56;;;;;;;24.55;18.35;;;23.50;53.80;;;;;;5027679;28;20029;-58
2021/08/26 04:05:21;;;;;;;23.88;17.25;;;23.50;53.80;;;;;;5027666;28;20091;-58
2021/08/26 04:07:47;;;;;;;22.83;17.27;;;23.50;53.80;;;;;;5020730;28;20060;-59
2021/08/26 04:10:13;;;;;;;22.05;17.13;;;23.50;53.80;;;;;;5022617;28;20014;-57
2021/08/26 04:12:38;;;;;;;23.75;16.67;;;23.50;53.80;;;;;;5008749;28;20057;-57
2021/08/26 04:15:05;;;;;;;20.83;16.70;;;23.50;53.80;;;;;;5015141;28;20025;-58
2021/08/26 04:17:30;;;;;;;20.85;16.40;;;23.40;53.70;;;;;;5027693;28;20423;-59
2021/08/26 04:19:56;;;;;;;24.15;17.33;;;23.50;53.80;;;;;;5008712;28;20067;-56
2021/08/26 04:22:21;;;;;;;21.92;16.77;;;23.40;53.70;;;;;;5017041;28;20060;-59
2021/08/26 04:24:47;;;;;;;21.48;16.15;;;23.40;53.70;;;;;;5030938;28;20064;-58
2021/08/26 04:27:13;;;;;;;20.17;15.75;;;23.40;53.70;;;;;;5037664;28;20029;-58
2021/08/26 04:29:38;;;;;;;22.02;16.35;;;23.40;53.70;;;;;;5024632;28;20044;-56
2021/08/26 04:32:05;;;;;;;21.75;15.73;;;23.40;53.70;;;;;;5029013;28;20457;-59
2021/08/26 04:34:30;;;;;;;18.92;14.93;;;23.40;53.70;;;;;;5007752;28;20029;-59
2021/08/26 04:36:56;;;;;;;18.80;15.10;;;23.40;53.70;;;;;;5022823;28;20435;-59
2021/08/26 04:39:22;;;;;;;21.20;15.45;;;23.40;53.80;;;;;;5032289;28;20024;-59
2021/08/26 04:41:47;;;;;;;20.92;15.63;;;23.40;53.80;;;;;;5025504;28;20099;-58
2021/08/26 04:44:13;;;;;;;20.48;15.75;;;23.40;53.80;;;;;;5014577;28;20037;-59
2021/08/26 04:46:38;;;;;;;20.48;15.40;;;23.40;53.80;;;;;;5025477;28;20032;-60
2021/08/26 04:49:04;;;;;;;19.55;14.55;;;23.40;53.80;;;;;;5023108;28;20034;-60
2021/08/26 04:51:30;;;;;;;20.83;15.20;;;23.40;53.80;;;;;;5024939;28;20029;-58
2021/08/26 04:53:55;;;;;;;20.33;15.40;;;23.40;53.80;;;;;;5019225;28;20045;-57
2021/08/26 04:56:21;;;;;;;20.15;14.90;;;23.40;53.80;;;;;;5019947;28;20156;-60
2021/08/26 04:58:46;;;;;;;21.17;15.05;;;23.40;53.80;;;;;;5014285;28;20505;-59
2021/08/26 05:01:12;;;;;;;22.08;15.57;;;23.40;53.80;;;;;;5026777;28;20116;-56
2021/08/26 05:03:37;;;;;;;20.48;15.65;;;23.40;53.80;;;;;;5017675;28;20030;-59
2021/08/26 05:06:04;;;;;;;18.73;13.38;;;23.40;53.80;;;;;;5019063;28;20041;-60
2021/08/26 05:08:30;;;;;;;19.48;14.30;;;23.30;53.80;;;;;;5023472;28;20083;-56
2021/08/26 05:10:56;;;;;;;20.20;15.02;;;23.30;53.80;;;;;;5013614;28;20018;-57
2021/08/26 05:13:22;;;;;;;17.30;13.88;;;23.30;53.80;;;;;;5022764;28;20039;-57
2021/08/26 05:15:47;;;;;;;19.23;14.27;;;23.30;53.80;;;;;;5012682;28;20034;-59
2021/08/26 05:18:13;;;;;;;19.48;14.20;;;23.30;53.80;;;;;;5010391;28;20055;-58
2021/08/26 05:20:38;;;;;;;19.38;14.77;;;23.30;53.90;;;;;;5010995;28;20069;-58
2021/08/26 05:23:04;;;;;;;17.88;14.20;;;23.30;53.90;;;;;;5011304;28;20077;-56
2021/08/26 05:25:30;;;;;;;19.70;14.40;;;23.30;53.90;;;;;;5017091;28;20030;-57
2021/08/26 05:27:55;;;;;;;17.75;14.00;;;23.30;53.90;;;;;;5022249;28;20041;-58
2021/08/26 05:30:21;;;;;;;17.60;13.23;;;23.30;53.90;;;;;;5019049;28;20037;-59
2021/08/26 05:32:48;;;;;;;18.42;13.75;;;23.30;54.00;;;;;;5023746;28;20038;-60
2021/08/26 05:35:14;;;;;;;16.88;12.65;;;23.30;54.00;;;;;;5019835;28;20358;-57
2021/08/26 05:37:39;;;;;;;16.73;13.15;;;23.30;54.00;;;;;;5020003;28;20038;-58
2021/08/26 05:40:06;;;;;;;17.33;12.93;;;23.30;54.00;;;;;;5020812;28;20030;-59
2021/08/26 05:42:32;;;;;;;16.92;13.02;;;23.30;54.00;;;;;;5019564;28;20041;-57
2021/08/26 05:44:57;;;;;;;17.02;13.05;;;23.30;54.00;;;;;;5024515;28;20396;-58
2021/08/26 05:47:23;;;;;;;17.98;13.10;;;23.30;54.00;;;;;;5031605;28;20108;-57
2021/08/26 05:49:49;;;;;;;15.80;12.65;;;23.30;54.00;;;;;;5009715;28;20022;-59
2021/08/26 05:52:15;;;;;;;15.35;12.30;;;23.30;54.00;;;;;;5024458;28;20355;-59
2021/08/26 05:54:40;;;;;;;14.93;12.15;;;23.30;54.00;;;;;;5031525;28;20037;-58
2021/08/26 05:57:06;;;;;;;14.93;12.20;;;23.30;54.00;;;;;;5037498;28;20108;-59
2021/08/26 05:59:32;;;;;;;15.82;12.35;;;23.30;54.00;;;;;;5028619;28;20081;-57
2021/08/26 06:02:00;;;;;;;16.30;12.02;;;23.20;53.90;;;;;;5014004;28;20492;-58
2021/08/26 06:04:26;;;;;;;15.23;12.33;;;23.20;53.90;;;;;;5023291;28;20032;-58
2021/08/26 06:06:51;;;;;;;16.27;12.43;;;23.30;54.00;;;;;;5020719;28;20026;-57
2021/08/26 06:09:17;;;;;;;16.27;12.25;;;23.20;53.90;;;;;;5010557;28;20052;-59
2021/08/26 06:11:43;;;;;;;14.63;11.02;;;23.20;53.90;;;;;;5014639;28;20690;-58
2021/08/26 06:14:09;;;;;;;14.73;10.95;;;23.20;53.90;;;;;;5035042;28;20473;-56
2021/08/26 06:16:35;;;;;;;13.98;10.93;;;23.20;53.90;;;;;;5019327;28;20359;-59
2021/08/26 06:19:00;;;;;;;15.63;11.70;;;23.20;53.90;;;;;;5022024;28;20025;-56
2021/08/26 06:21:26;;;;;;;13.68;10.93;;;23.20;53.80;;;;;;5021649;28;20069;-58
2021/08/26 06:23:52;;;;;;;15.45;11.73;;;23.20;53.80;;;;;;5015782;28;20030;-57
2021/08/26 06:26:18;;;;;;;14.45;11.35;;;23.20;53.80;;;;;;5017795;28;20026;-59
2021/08/26 06:28:43;;;;;;;17.30;11.07;;;23.20;53.90;;;;;;5019598;28;20033;-58
2021/08/26 06:31:09;;;;;;;12.88;10.30;;;23.20;53.80;;;;;;5020929;28;20414;-58
2021/08/26 06:33:34;;;;;;;13.93;10.38;;;23.20;53.80;;;;;;5018375;28;20025;-56
2021/08/26 06:36:00;;;;;;;13.95;10.98;;;23.20;53.80;;;;;;5019380;28;20378;-55
2021/08/26 06:38:26;;;;;;;13.80;10.27;;;23.20;53.80;;;;;;5018406;28;20030;-58
2021/08/26 06:40:51;;;;;;;13.85;9.95;;;23.20;53.80;;;;;;5019426;28;20084;-59
2021/08/26 06:43:17;;;;;;;14.32;10.20;;;23.20;53.80;;;;;;5014607;28;20061;-56
2021/08/26 06:45:42;;;;;;;13.15;10.13;;;23.10;53.70;;;;;;5026867;28;20025;-59
2021/08/26 06:48:08;;;;;;;12.20;9.77;;;23.20;53.80;;;;;;5025535;28;20066;-59
2021/08/26 06:50:34;;;;;;;12.80;9.85;;;23.20;53.80;;;;;;5020798;28;20128;-59
2021/08/26 06:52:59;;;;;;;12.38;9.13;;;23.10;53.70;;;;;;5023070;28;20109;-59
2021/08/26 06:55:25;;;;;;;12.00;9.70;;;23.10;53.70;;;;;;5020621;28;20026;-59
2021/08/26 06:57:50;;;;;;;11.38;8.70;;;23.20;53.80;;;;;;5025693;28;20033;-57
2021/08/26 07:00:16;;;;;;;12.60;9.82;;;23.10;53.70;;;;;;5022661;28;20045;-59
2021/08/26 07:02:42;;;;;;;11.88;9.25;;;23.10;53.70;;;;;;5018904;28;20113;-58
2021/08/26 07:05:08;;;;;;;11.95;8.93;;;23.20;53.80;;;;;;5023020;28;20049;-55
2021/08/26 07:07:34;;;;;;;12.40;9.18;;;23.10;54.30;;;;;;5021089;28;20021;-57
2021/08/26 07:10:00;;;;;;;11.63;9.05;;;23.10;53.70;;;;;;5020531;28;20033;-57
2021/08/26 07:12:30;;;;;;;12.15;9.20;;;23.10;53.70;;;;;;5016690;28;20069;-59
2021/08/26 07:14:56;;;;;;;11.27;8.63;;;23.10;53.70;;;;;;5014991;28;20380;-57
2021/08/26 07:17:22;;;;;;;10.90;8.45;;;23.10;53.70;;;;;;5019243;28;20137;-52
2021/08/26 07:19:47;;;;;;;10.77;8.77;;;23.10;53.70;;;;;;5013644;28;20164;-59
2021/08/26 07:22:13;;;;;;;11.60;9.13;;;23.10;53.70;;;;;;5010722;28;20050;-58
2021/08/26 07:24:38;;;;;;;11.90;8.65;;;23.10;53.70;;;;;;5009736;28;20034;-58
2021/08/26 07:27:04;;;;;;;9.40;7.82;;;23.10;53.70;;;;;;5008073;28;20076;-57
2021/08/26 07:29:29;;;;;;;11.18;8.40;;;23.10;53.70;;;;;;5009898;28;20116;-60
2021/08/26 07:31:55;;;;;;;11.38;8.65;;;23.10;53.70;;;;;;5025299;28;20030;-59
2021/08/26 07:34:21;;;;;;;11.38;8.05;;;23.10;53.70;;;;;;5018602;28;20501;-59
2021/08/26 07:36:46;;;;;;;10.82;7.80;;;23.10;53.70;;;;;;5028326;28;20029;-60
2021/08/26 07:39:12;;;;;;;11.13;8.18;;;23.10;53.80;;;;;;5025737;28;20021;-59
2021/08/26 07:41:37;;;;;;;10.48;8.50;;;23.10;53.70;;;;;;5008650;28;20025;-60
2021/08/26 07:44:03;;;;;;;11.00;8.07;;;23.10;53.70;;;;;;5027685;28;20034;-59
2021/08/26 07:46:29;;;;;;;10.52;7.65;;;23.10;53.70;;;;;;5009645;28;20057;-60
2021/08/26 07:48:54;;;;;;;10.27;7.90;;;23.00;53.70;;;;;;5015349;28;20026;-58
2021/08/26 07:51:20;;;;;;;11.93;8.23;;;23.10;53.70;;;;;;5011953;28;20113;-60
2021/08/26 07:53:45;;;;;;;10.70;7.90;;;23.10;53.80;;;;;;5008404;28;20033;-55
2021/08/26 07:56:11;;;;;;;9.52;7.43;;;23.10;53.80;;;;;;5024457;28;20033;-60
2021/08/26 07:58:37;;;;;;;9.45;7.40;;;23.10;53.70;;;;;;5027959;28;20026;-58
2021/08/26 08:01:03;;;;;;;10.80;7.85;;;23.10;53.80;;;;;;5020148;28;20045;-56
2021/08/26 08:03:32;;;;;;;10.35;7.50;;;23.10;53.80;;;;;;5008488;28;20497;-60
2021/08/26 08:05:58;;;;;;;9.73;7.07;;;23.00;53.70;;;;;;5011223;28;20056;-55
2021/08/26 08:08:24;;;;;;;9.73;7.97;;;23.00;53.70;;;;;;5018199;28;20030;-58
2021/08/26 08:10:49;;;;;;;9.00;7.03;;;23.00;53.70;;;;;;5016866;28;20124;-58
2021/08/26 08:13:15;;;;;;;9.68;7.35;;;23.00;53.70;;;;;;5014418;28;20037;-59
2021/08/26 08:15:42;;;;;;;8.73;7.03;;;23.00;53.70;;;;;;5011860;28;20061;-59
2021/08/26 08:18:08;;;;;;;8.68;6.72;;;23.00;53.70;;;;;;5019805;28;20037;-59
2021/08/26 08:20:33;;;;;;;9.65;7.28;;;23.00;53.70;;;;;;5030602;28;20017;-59
2021/08/26 08:22:59;;;;;;;9.57;7.18;;;23.00;53.70;;;;;;5013723;28;20104;-59
2021/08/26 08:25:24;;;;;;;8.23;6.78;;;23.10;53.80;;;;;;5012294;28;20060;-60
2021/08/26 08:27:50;;;;;;;8.65;6.72;;;23.00;53.80;;;;;;5018922;28;20033;-58
2021/08/26 08:30:16;;;;;;;9.00;6.57;;;23.00;54.30;;;;;;5021636;28;20060;-59
2021/08/26 08:32:42;;;;;;;9.88;6.97;;;23.00;53.80;;;;;;5017407;28;20044;-59
2021/08/26 08:35:08;;;;;;;7.22;6.10;;;23.00;53.80;;;;;;5022548;28;20021;-59
2021/08/26 08:37:33;;;;;;;8.73;6.60;;;23.00;53.80;;;;;;5022551;28;20084;-60
2021/08/26 08:39:59;;;;;;;8.40;6.30;;;23.00;53.80;;;;;;5013733;28;20029;-59
2021/08/26 08:42:25;;;;;;;9.32;6.78;;;23.00;53.80;;;;;;5018181;28;20506;-59
2021/08/26 08:44:52;;;;;;;9.13;6.88;;;23.00;53.80;;;;;;5010164;28;20132;-61
2021/08/26 08:47:18;;;;;;;8.25;6.55;;;23.00;53.80;;;;;;5021088;28;20101;-60
2021/08/26 08:49:46;;;;;;;8.63;7.03;;;23.00;53.80;;;;;;5020612;28;20052;-60
2021/08/26 08:52:12;;;;;;;9.93;7.00;;;23.00;53.80;;;;;;5010093;28;20045;-59
2021/08/26 08:54:38;;;;;;;7.93;5.90;;;23.00;53.80;;;;;;5011260;28;20037;-59
2021/08/26 08:57:04;;;;;;;8.88;6.30;;;23.00;53.80;;;;;;5012804;28;20029;-58
2021/08/26 08:59:33;;;;;;;8.13;6.45;;;23.00;53.80;;;;;;5022889;28;20041;-61
2021/08/26 09:01:59;;;;;;;8.20;6.30;;;23.00;53.80;;;;;;5019438;28;20585;-57
2021/08/26 09:04:24;;;;;;;8.65;6.18;;;23.00;53.80;;;;;;5027208;28;20121;-55
2021/08/26 09:06:50;;;;;;;7.13;5.72;;;23.00;53.80;;;;;;5020910;28;20038;-58
2021/08/26 09:09:18;;;;;;;7.25;5.80;;;23.00;53.80;;;;;;5021111;28;20036;-59
2021/08/26 09:11:51;;;;;;;8.02;6.22;;;23.00;53.90;;;;;;5009769;28;20089;-57
2021/08/26 09:14:17;;;;;;;7.97;5.90;;;23.00;53.80;;;;;;5022047;28;20026;-60
2021/08/26 09:16:51;;;;;;;8.07;5.90;;;23.00;53.80;;;;;;5014601;28;20353;-57
2021/08/26 09:19:29;;;;;;;7.78;5.70;;;23.00;53.90;;;;;;5022395;28;20046;-59
2021/08/26 09:21:55;;;;;;;7.40;5.70;;;23.00;53.90;;;;;;5010692;28;20402;-58
2021/08/26 09:24:21;;;;;;;7.15;5.68;;;22.90;53.80;;;;;;5018428;28;20072;-60
2021/08/26 09:26:51;;;;;;;7.35;5.72;;;23.00;53.90;;;;;;5017668;28;20060;-59
2021/08/26 09:29:17;;;;;;;8.07;5.82;;;23.00;53.90;;;;;;5007912;28;20030;-59
2021/08/26 09:31:44;;;;;;;7.28;5.55;;;22.90;53.80;;;;;;5016665;28;20044;-60
2021/08/26 09:34:11;;;;;;;6.72;5.32;;;23.00;53.90;;;;;;5013769;28;20068;-59
2021/08/26 09:36:46;;;;;;;6.93;5.30;;;23.00;53.90;;;;;;5022023;28;20025;-58
2021/08/26 09:39:15;;;;;;;8.38;6.07;;;22.90;53.80;;;;;;5014943;28;20150;-57
2021/08/26 09:41:48;;;;;;;7.13;5.43;;;22.90;53.80;;;;;;5021485;28;20112;-58
2021/08/26 09:44:18;;;;;;;7.93;5.60;;;23.00;53.90;;;;;;5014068;28;20051;-59
2021/08/26 09:46:47;;;;;;;7.30;5.50;;;22.90;53.80;;;;;;5012353;28;20058;-59
2021/08/26 09:49:15;;;;;;;7.03;5.55;;;22.90;53.80;;;;;;5023433;28;20116;-61
2021/08/26 09:51:42;;;;;;;6.68;5.20;;;22.90;53.80;;;;;;5020085;28;20374;-57
2021/08/26 09:54:31;;;;;;;7.45;5.43;;;22.90;53.80;;;;;;5018194;28;20417;-61
2021/08/26 09:56:58;;;;;;;;;;;22.90;53.80;;;;;;5016817;28;20067;-55
2021/08/26 09:59:44;;;;;;;5.97;4.60;;;22.90;53.90;;;;;;5017329;28;19932;-57
2021/08/26 10:02:10;;;;;;;7.60;5.10;;;22.90;53.90;;;;;;5022898;28;20037;-59
2021/08/26 10:04:37;;;;;;;6.75;5.13;;;22.90;53.90;;;;;;5018145;28;20032;-61
2021/08/26 10:07:03;;;;;;;6.75;5.30;;;22.90;53.90;;;;;;5013167;28;20038;-58
2021/08/26 10:09:29;;;;;;;7.40;5.15;;;22.90;53.90;;;;;;5026002;28;20112;-60
2021/08/26 10:11:55;;;;;;;6.72;5.10;;;22.90;53.90;;;;;;5014450;28;20168;-61
2021/08/26 10:14:21;;;;;;;7.53;5.38;;;22.90;53.90;;;;;;5014421;28;20042;-58
2021/08/26 10:16:47;;;;;;;6.30;4.97;;;22.90;53.90;;;;;;5009751;28;20409;-59
2021/08/26 10:19:15;;;;;;;6.50;4.70;;;22.90;53.90;;;;;;5015874;28;20153;-58
2021/08/26 10:21:42;;;;;;;6.50;5.20;;;22.90;53.90;;;;;;5020670;28;20053;-60
2021/08/26 10:24:09;;;;;;;6.25;4.78;;;22.90;53.90;;;;;;5023189;28;20036;-60
2021/08/26 10:26:37;;;;;;;6.90;5.10;;;22.90;53.90;;;;;;5011879;28;20022;-59
2021/08/26 10:29:06;;;;;;;6.85;5.30;;;22.90;53.90;;;;;;5024429;28;20501;-59
2021/08/26 10:31:34;;;;;;;6.57;4.80;;;22.90;53.90;;;;;;5028867;28;20028;-60
2021/08/26 10:34:23;;;;;;;6.10;4.73;;;22.90;53.90;;;;;;5024040;28;20392;-56
2021/08/26 10:36:55;;;;;;;6.97;5.30;;;22.90;54.50;;;;;;5017088;28;20760;-59
2021/08/26 10:39:31;;;;;;;5.82;4.63;;;22.90;54.50;;;;;;5021497;28;20157;-59
2021/08/26 10:42:28;;;;;;;6.30;4.55;;;22.80;54.00;;;;;;5024588;28;20140;-61
2021/08/26 10:45:09;;;;;;;5.60;4.40;;;22.80;54.00;;;;;;5023070;28;20542;-60
2021/08/26 10:47:50;;;;;;;5.88;4.18;;;22.80;54.00;;;;;;5026530;28;20026;-56
2021/08/26 10:50:20;;;;;;;6.00;4.50;;;22.90;54.10;;;;;;5011199;28;20108;-61
2021/08/26 10:53:04;;;;;;;5.25;4.30;;;22.90;54.10;;;;;;5027349;28;20750;-62
2021/08/26 10:55:39;;;;;;;5.82;4.20;;;22.80;54.10;;;;;;5015332;28;20054;-61
2021/08/26 10:58:34;;;;;;;5.47;4.10;;;22.80;54.10;;;;;;5022143;28;20182;-61
2021/08/26 11:01:05;;;;;;;5.95;3.90;;;22.90;54.20;;;;;;4996889;28;20080;-61
2021/08/26 11:03:46;;;;;;;5.43;4.15;;;22.80;54.10;;;;;;5021547;28;20163;-60
2021/08/26 11:06:18;;;;;;;5.18;3.85;;;22.90;54.20;;;;;;5019734;28;20052;-59
2021/08/26 11:08:51;;;;;;;5.15;4.00;;;22.80;54.20;;;;;;5018475;28;20071;-61
2021/08/26 11:11:31;;;;;;;5.53;4.00;;;22.90;54.30;;;;;;5018110;28;20021;-60
2021/08/26 11:14:02;;;;;;;5.18;3.63;;;22.80;54.20;;;;;;5017132;28;20873;-59
2021/08/26 11:16:28;;;;;;;5.30;3.70;;;22.80;54.20;;;;;;5034966;28;20457;-61
2021/08/26 11:19:16;;;;;;;5.32;3.85;;;22.80;54.20;;;;;;5014657;28;20048;-60
2021/08/26 11:21:42;;;;;;;3.40;2.78;;;22.80;54.30;;;;;;5010241;28;20588;-60
2021/08/26 11:24:17;;;;;;;5.00;3.70;;;22.80;54.20;;;;;;5017290;28;20109;-60
2021/08/26 11:26:51;;;;;;;4.63;3.40;;;22.80;54.30;;;;;;5027309;28;20025;-59
2021/08/26 11:29:25;;;;;;;5.30;3.38;;;22.80;54.30;;;;;;5014871;28;20074;-59
2021/08/26 11:31:53;;;;;;;4.38;3.42;;;22.80;54.50;;;;;;5017001;28;20459;-59
2021/08/26 11:34:33;;;;;;;4.80;3.60;;;22.80;54.30;;;;;;5017293;28;20057;-59
2021/08/26 11:37:11;;;;;;;5.43;3.35;;;22.80;54.30;;;;;;5026151;28;20059;-58
2021/08/26 11:39:51;;;;;;;4.68;3.50;;;22.80;54.40;;;;;;5034219;28;20040;-58
2021/08/26 11:42:19;;;;;;;;;;;22.80;54.40;;;;;;5025062;28;20045;-59
2021/08/26 11:45:07;;;;;;;5.10;3.13;;;22.80;54.40;;;;;;5006553;28;19913;-58
2021/08/26 11:47:34;;;;;;;4.30;3.00;;;22.80;54.40;;;;;;5018049;28;20155;-58
2021/08/26 11:50:10;;;;;;;4.32;2.80;;;22.80;54.40;;;;;;5005635;28;20041;-60
2021/08/26 11:52:36;;;;;;;5.30;3.00;;;22.80;54.40;;;;;;5005719;28;20037;-59
2021/08/26 11:55:02;;;;;;;4.57;2.90;;;22.80;54.40;;;;;;5006411;28;20030;-58
2021/08/26 11:57:27;;;;;;;4.60;3.20;;;22.80;54.40;;;;;;5017294;28;20021;-59
2021/08/26 11:59:53;;;;;;;4.85;2.70;;;22.80;54.40;;;;;;5025717;28;20033;-58
2021/08/26 12:02:27;;;;;;;3.28;2.60;;;22.80;54.40;;;;;;5024051;28;20036;-59
2021/08/26 12:05:00;;;;;;;3.42;2.78;;;22.80;54.50;;;;;;5008904;28;20071;-58
2021/08/26 12:07:34;;;;;;;3.92;2.90;;;22.80;54.90;;;;;;5016854;28;20109;-58
2021/08/26 12:10:08;;;;;;;4.50;3.15;;;22.80;54.40;;;;;;5033286;28;20034;-57
2021/08/26 12:12:34;;;;;;;4.28;2.80;;;22.80;54.40;;;;;;5021437;28;20045;-58
2021/08/26 12:14:59;;;;;;;4.03;2.72;;;22.80;54.40;;;;;;5006005;28;20032;-58
2021/08/26 12:17:25;;;;;;;4.25;3.03;;;22.80;54.40;;;;;;5017435;28;20111;-57
2021/08/26 12:19:53;;;;;;;3.72;2.50;;;22.80;54.40;;;;;;5019808;28;20029;-58
2021/08/26 12:22:22;;;;;;;3.85;2.55;;;22.80;54.50;;;;;;5005031;28;20127;-60
2021/08/26 12:24:55;;;;;;;3.65;2.53;;;22.80;54.50;;;;;;5003844;28;20030;-59
2021/08/26 12:27:23;;;;;;;3.92;2.33;;;22.80;54.50;;;;;;5011477;28;20037;-60
2021/08/26 12:29:49;;;;;;;3.65;2.45;;;22.80;54.50;;;;;;5024043;28;20676;-59
2021/08/26 12:32:29;;;;;;;3.70;2.50;;;22.80;54.50;;;;;;5014751;28;20791;-56
2021/08/26 12:35:16;;;;;;;3.85;2.30;;;22.80;54.50;;;;;;5003471;28;20038;-56
2021/08/26 12:37:56;;;;;;;4.28;2.55;;;22.80;54.50;;;;;;5014257;28;20029;-59
2021/08/26 12:40:24;;;;;;;3.17;2.15;;;22.80;54.50;;;;;;5013211;28;20468;-60
2021/08/26 12:42:56;;;;;;;3.50;2.40;;;22.80;54.50;;;;;;5014015;28;20160;-59
2021/08/26 12:45:22;;;;;;;4.18;2.72;;;22.80;54.60;;;;;;5011289;28;20038;-59